Terminal Aerodrome Forecast
Issued by NWS

Home | Current Version | Previous Version | Text Only | Print | Product List | Glossary On
Versions: 1 2 3 4 5 6 7 8 9 10 11 12 13
323
FTUS45 KVEF 291123
TAFEED
TAF
KEED 291123Z 2912/3012 36011KT P6SM SCT250
     FM291600 01017G25KT P6SM SCT250
     FM300200 33008KT P6SM BKN250
     FM300900 26008KT P6SM BKN250=

USA.gov is the U.S. government's official web portal to all federal, state and local government web resources and services.